createdAt,value
2023-02-25T00:01:44.479Z,85.45
2023-02-25T00:04:16.511Z,85.09
2023-02-25T00:06:45.714Z,85.30
2023-02-25T00:09:13.331Z,85.52
2023-02-25T00:11:40.995Z,85.05
2023-02-25T00:14:08.736Z,85.10
2023-02-25T00:16:36.597Z,85.62
2023-02-25T00:19:04.388Z,85.66
2023-02-25T00:21:32.103Z,85.59
2023-02-25T00:24:14.053Z,85.13
2023-02-25T00:26:43.376Z,84.96
2023-02-25T00:29:11.024Z,84.91
2023-02-25T00:31:38.947Z,85.52
2023-02-25T00:34:06.716Z,85.44
2023-02-25T00:36:34.448Z,84.88
2023-02-25T00:39:02.421Z,85.08
2023-02-25T00:41:30.496Z,85.19
2023-02-25T00:43:58.088Z,85.10
2023-02-25T00:46:26.177Z,84.96
2023-02-25T00:48:54.385Z,85.20
2023-02-25T00:51:22.051Z,84.94
2023-02-25T00:53:49.655Z,85.02
2023-02-25T00:56:17.398Z,84.99
2023-02-25T00:58:45.364Z,85.09
2023-02-25T01:01:13.024Z,85.21
2023-02-25T01:03:40.833Z,85.32
2023-02-25T01:06:08.463Z,85.01
2023-02-25T01:08:36.151Z,85.08
2023-02-25T01:11:04.697Z,85.30
2023-02-25T01:13:32.319Z,84.81
2023-02-25T01:16:00.445Z,85.09
2023-02-25T01:18:28.077Z,85.21
2023-02-25T01:20:57.203Z,84.79
2023-02-25T01:23:24.815Z,85.02
2023-02-25T01:25:52.411Z,85.09
2023-02-25T01:28:20.178Z,84.46
2023-02-25T01:30:47.824Z,84.41
2023-02-25T01:33:15.549Z,84.96
2023-02-25T01:35:43.528Z,84.94
2023-02-25T01:38:11.159Z,84.33
2023-02-25T01:40:39.094Z,84.72
2023-02-25T01:43:07.872Z,84.76
2023-02-25T01:45:35.456Z,84.54
2023-02-25T01:48:03.480Z,84.74
2023-02-25T01:50:31.070Z,84.87
2023-02-25T01:53:00.256Z,84.43
2023-02-25T01:55:27.901Z,84.67
2023-02-25T01:57:55.485Z,84.98
2023-02-25T02:00:23.493Z,84.90
2023-02-25T02:02:51.136Z,84.66
2023-02-25T02:05:18.717Z,84.69
2023-02-25T02:07:46.261Z,85.17
2023-02-25T02:10:13.901Z,84.81
2023-02-25T02:12:41.879Z,84.47
2023-02-25T02:15:09.786Z,84.99
2023-02-25T02:17:37.558Z,84.87
2023-02-25T02:20:10.005Z,85.11
2023-02-25T02:22:37.601Z,84.70
2023-02-25T02:25:05.766Z,84.89
2023-02-25T02:27:33.308Z,84.31
2023-02-25T02:30:00.890Z,84.81
2023-02-25T02:32:28.671Z,84.51
2023-02-25T02:34:56.376Z,84.46
2023-02-25T02:37:24.751Z,84.72
2023-02-25T02:39:52.372Z,84.61
2023-02-25T02:42:21.350Z,84.73
2023-02-25T02:44:48.907Z,85.13
2023-02-25T02:47:16.532Z,84.56
2023-02-25T02:49:44.501Z,84.11
2023-02-25T02:52:15.393Z,84.37
2023-02-25T02:54:43.119Z,84.49
2023-02-25T02:57:10.758Z,84.68
2023-02-25T02:59:43.295Z,84.80
2023-02-25T03:02:11.356Z,84.49
2023-02-25T03:04:38.958Z,84.36
2023-02-25T03:07:06.751Z,84.24
2023-02-25T03:09:34.376Z,84.64
2023-02-25T03:12:01.976Z,84.50
2023-02-25T03:14:29.946Z,84.88
2023-02-25T03:16:57.694Z,84.63
2023-02-25T03:19:25.396Z,84.65
2023-02-25T03:21:54.825Z,84.48
2023-02-25T03:24:22.606Z,84.69
2023-02-25T03:26:50.195Z,84.71
2023-02-25T03:29:17.966Z,84.38
2023-02-25T03:31:45.915Z,84.39
2023-02-25T03:34:13.908Z,84.62
2023-02-25T03:36:41.470Z,84.74
2023-02-25T03:39:10.140Z,84.72
2023-02-25T03:41:37.790Z,84.85
2023-02-25T03:44:07.199Z,84.96
2023-02-25T03:46:35.272Z,84.65
2023-02-25T03:49:02.941Z,84.72
2023-02-25T03:51:30.972Z,84.86
2023-02-25T03:53:58.577Z,84.68
2023-02-25T03:56:26.739Z,84.97
2023-02-25T03:58:54.327Z,84.83
2023-02-25T04:01:21.954Z,85.08
2023-02-25T04:03:49.548Z,85.09
2023-02-25T04:06:17.221Z,84.61
2023-02-25T04:08:45.032Z,84.57
2023-02-25T04:11:12.642Z,85.14
2023-02-25T04:13:40.258Z,84.63
2023-02-25T04:16:09.027Z,84.96
2023-02-25T04:18:36.649Z,84.64
2023-02-25T04:21:04.457Z,84.54
2023-02-25T04:23:32.127Z,84.69
2023-02-25T04:25:59.722Z,84.40
2023-02-25T04:28:28.158Z,84.56
2023-02-25T04:30:55.885Z,84.64
2023-02-25T04:33:23.691Z,84.47
2023-02-25T04:35:51.289Z,84.21
2023-02-25T04:38:18.941Z,84.53
2023-02-25T04:40:46.953Z,84.57
2023-02-25T04:43:14.514Z,84.67
2023-02-25T04:45:42.345Z,84.91
2023-02-25T04:48:09.944Z,84.98
2023-02-25T04:50:37.982Z,84.65
2023-02-25T04:53:05.973Z,84.01
2023-02-25T04:55:33.547Z,83.98
2023-02-25T04:58:01.186Z,84.37
2023-02-25T05:00:28.855Z,84.36
2023-02-25T05:02:56.453Z,84.38
2023-02-25T05:05:24.445Z,84.73
2023-02-25T05:07:52.215Z,84.35
2023-02-25T05:10:20.030Z,84.55
2023-02-25T05:12:48.067Z,84.59
2023-02-25T05:15:16.380Z,84.44
2023-02-25T05:17:44.340Z,84.25
2023-02-25T05:20:13.289Z,84.37
2023-02-25T05:22:41.006Z,84.54
2023-02-25T05:25:08.621Z,84.34
2023-02-25T05:27:36.230Z,84.92
2023-02-25T05:30:04.094Z,84.56
2023-02-25T05:32:32.207Z,84.28
2023-02-25T05:35:00.586Z,84.24
2023-02-25T05:37:28.279Z,84.54
2023-02-25T05:39:55.896Z,83.94
2023-02-25T05:42:23.869Z,84.79
2023-02-25T05:44:51.522Z,84.01
2023-02-25T05:47:19.147Z,84.29
2023-02-25T05:49:46.723Z,84.54
2023-02-25T05:52:14.361Z,84.33
2023-02-25T05:54:42.367Z,84.25
2023-02-25T05:57:09.976Z,84.37
2023-02-25T05:59:38.264Z,83.85
2023-02-25T06:02:05.916Z,84.52
2023-02-25T06:04:33.590Z,84.49
2023-02-25T06:07:03.451Z,84.10
2023-02-25T06:09:32.187Z,84.36
2023-02-25T06:11:59.758Z,84.30
2023-02-25T06:14:27.412Z,84.51
2023-02-25T06:16:57.042Z,84.85
2023-02-25T06:19:26.804Z,84.45
2023-02-25T06:21:54.996Z,84.56
2023-02-25T06:24:22.578Z,83.94
2023-02-25T06:26:50.157Z,84.60
2023-02-25T06:29:17.873Z,84.20
2023-02-25T06:31:45.608Z,84.18
2023-02-25T06:34:13.369Z,84.67
2023-02-25T06:36:41.148Z,84.44
2023-02-25T06:39:09.332Z,83.76
2023-02-25T06:41:36.927Z,84.24
2023-02-25T06:44:05.705Z,83.96
2023-02-25T06:46:33.395Z,84.39
2023-02-25T06:49:01.224Z,83.93
2023-02-25T06:51:28.834Z,84.45
2023-02-25T06:53:56.440Z,84.00
2023-02-25T06:56:24.721Z,84.03
2023-02-25T06:58:53.568Z,84.01
2023-02-25T07:01:21.422Z,84.08
2023-02-25T07:03:49.062Z,83.92
2023-02-25T07:06:16.958Z,84.53
2023-02-25T07:08:45.457Z,84.42
2023-02-25T07:11:15.043Z,84.12
2023-02-25T07:13:44.625Z,84.13
2023-02-25T07:16:12.335Z,83.80
2023-02-25T07:18:39.954Z,83.71
2023-02-25T07:21:08.113Z,84.02
2023-02-25T07:23:35.721Z,84.05
2023-02-25T07:26:03.526Z,83.89
2023-02-25T07:28:31.614Z,83.90
2023-02-25T07:30:59.309Z,83.83
2023-02-25T07:33:27.376Z,84.18
2023-02-25T07:35:55.023Z,84.06
2023-02-25T07:38:22.915Z,84.07
2023-02-25T07:40:50.604Z,83.94
2023-02-25T07:43:18.843Z,84.30
2023-02-25T07:45:46.858Z,84.06
2023-02-25T07:48:14.555Z,83.86
2023-02-25T07:50:42.299Z,83.90
2023-02-25T07:53:09.916Z,84.16
2023-02-25T07:55:37.650Z,83.75
2023-02-25T07:58:07.371Z,83.77
2023-02-25T08:00:35.660Z,83.80
2023-02-25T08:03:03.341Z,83.78
2023-02-25T08:05:32.042Z,83.74
2023-02-25T08:07:59.819Z,84.28
2023-02-25T08:10:27.835Z,83.78
2023-02-25T08:12:55.525Z,83.65
2023-02-25T08:15:23.620Z,83.82
2023-02-25T08:17:52.584Z,83.84
2023-02-25T08:20:20.279Z,84.07
2023-02-25T08:22:48.248Z,84.15
2023-02-25T08:25:15.941Z,84.63
2023-02-25T08:27:45.448Z,84.93
2023-02-25T08:30:13.092Z,84.61
2023-02-25T08:32:42.093Z,85.05
2023-02-25T08:35:10.397Z,84.95
2023-02-25T08:37:38.020Z,85.19
2023-02-25T08:40:10.118Z,85.42
2023-02-25T08:42:37.843Z,84.77
2023-02-25T08:45:05.584Z,84.57
2023-02-25T08:47:34.209Z,84.68
2023-02-25T08:50:02.327Z,83.75
2023-02-25T08:52:35.187Z,83.70
2023-02-25T08:55:03.062Z,82.95
2023-02-25T08:57:30.829Z,82.58
2023-02-25T08:59:58.888Z,82.82
2023-02-25T09:02:26.563Z,82.52
2023-02-25T09:04:54.398Z,82.53
2023-02-25T09:07:22.369Z,82.33
2023-02-25T09:09:50.148Z,81.72
2023-02-25T09:12:18.708Z,82.11
2023-02-25T09:14:46.335Z,82.17
2023-02-25T09:17:14.280Z,82.28
2023-02-25T09:19:42.115Z,82.74
2023-02-25T09:22:09.895Z,82.28
2023-02-25T09:24:37.905Z,82.61
2023-02-25T09:27:08.334Z,82.19
2023-02-25T09:29:36.367Z,82.81
2023-02-25T09:32:04.246Z,82.72
2023-02-25T09:34:34.076Z,83.21
2023-02-25T09:37:02.206Z,82.54
2023-02-25T09:39:30.119Z,82.67
2023-02-25T09:41:58.265Z,83.40
2023-02-25T09:44:27.126Z,83.09
2023-02-25T09:46:54.878Z,83.49
2023-02-25T09:49:23.199Z,83.63
2023-02-25T09:51:51.049Z,83.41
2023-02-25T09:54:19.754Z,83.11
2023-02-25T09:56:47.699Z,82.97
2023-02-25T09:59:15.537Z,82.23
2023-02-25T10:01:46.064Z,81.86
2023-02-25T10:04:13.907Z,81.33
2023-02-25T10:06:44.424Z,81.26
2023-02-25T10:09:12.421Z,80.45
2023-02-25T10:11:40.323Z,80.73
2023-02-25T10:14:09.510Z,81.02
2023-02-25T10:16:38.081Z,80.67
2023-02-25T10:19:06.229Z,80.57
2023-02-25T10:21:35.046Z,79.81
2023-02-25T10:24:03.975Z,79.33
2023-02-25T10:26:33.122Z,78.54
2023-02-25T10:29:00.873Z,78.78
2023-02-25T10:31:29.192Z,79.69
2023-02-25T10:33:57.039Z,80.13
2023-02-25T10:36:24.718Z,81.19
2023-02-25T10:38:53.182Z,81.63
2023-02-25T10:41:23.152Z,81.62
2023-02-25T10:43:51.281Z,82.46
2023-02-25T10:46:19.130Z,81.60
2023-02-25T10:48:48.016Z,81.47
2023-02-25T10:51:16.137Z,81.80
2023-02-25T10:53:44.077Z,81.60
2023-02-25T10:56:12.061Z,82.17
2023-02-25T10:58:40.905Z,81.19
2023-02-25T11:01:09.193Z,81.26
2023-02-25T11:03:37.707Z,80.05
2023-02-25T11:06:05.477Z,79.01
2023-02-25T11:08:33.747Z,76.05
2023-02-25T11:11:01.644Z,74.15
2023-02-25T11:13:29.429Z,72.45
2023-02-25T11:15:57.229Z,70.81
2023-02-25T11:18:25.143Z,70.14
2023-02-25T11:20:53.295Z,68.83
2023-02-25T11:23:21.624Z,70.63
2023-02-25T11:25:51.785Z,72.40
2023-02-25T11:28:19.889Z,74.63
2023-02-25T11:30:47.821Z,75.54
2023-02-25T11:33:16.079Z,76.96
2023-02-25T11:35:44.052Z,78.24
2023-02-25T11:38:11.824Z,78.43
2023-02-25T11:40:39.713Z,78.89
2023-02-25T11:43:07.471Z,78.97
2023-02-25T11:45:36.875Z,79.80
2023-02-25T11:48:04.775Z,80.38
2023-02-25T11:50:32.478Z,80.20
2023-02-25T11:53:00.884Z,80.97
2023-02-25T11:55:28.646Z,80.75
2023-02-25T11:57:58.747Z,79.76
2023-02-25T12:00:26.836Z,77.13
2023-02-25T12:02:54.820Z,75.18
2023-02-25T12:05:24.410Z,71.76
2023-02-25T12:08:12.059Z,70.45
2023-02-25T12:10:41.242Z,67.52
2023-02-25T12:13:10.062Z,65.40
2023-02-25T12:15:38.186Z,66.98
2023-02-25T12:18:06.251Z,67.97
2023-02-25T12:20:34.150Z,69.97
2023-02-25T12:23:02.157Z,69.93
2023-02-25T12:25:29.981Z,67.63
2023-02-25T12:27:58.111Z,63.42
2023-02-25T12:30:25.942Z,63.08
2023-02-25T12:32:54.419Z,62.07
2023-02-25T12:35:22.973Z,63.90
2023-02-25T12:37:51.356Z,65.61
2023-02-25T12:40:20.258Z,66.85
2023-02-25T12:42:49.050Z,65.92
2023-02-25T12:45:16.953Z,63.47
2023-02-25T12:47:45.258Z,61.40
2023-02-25T12:50:13.684Z,61.19
2023-02-25T12:52:42.102Z,56.64
2023-02-25T12:55:10.093Z,57.77
2023-02-25T12:57:37.898Z,58.19
2023-02-25T13:00:08.060Z,58.99
2023-02-25T13:02:35.961Z,60.47
2023-02-25T13:05:04.272Z,62.19
2023-02-25T13:07:32.121Z,62.68
2023-02-25T13:09:59.987Z,63.37
2023-02-25T13:12:30.273Z,64.17
2023-02-25T13:14:58.326Z,64.16
2023-02-25T13:17:26.636Z,64.32
2023-02-25T13:19:54.477Z,63.39
2023-02-25T13:22:22.193Z,61.51
2023-02-25T13:24:50.437Z,60.01
2023-02-25T13:27:18.166Z,59.40
2023-02-25T13:29:46.355Z,60.10
2023-02-25T13:32:14.490Z,60.80
2023-02-25T13:34:42.368Z,60.40
2023-02-25T13:37:10.722Z,60.16
2023-02-25T13:39:38.680Z,58.70
2023-02-25T13:42:07.371Z,58.96
2023-02-25T13:44:35.177Z,58.02
2023-02-25T13:47:03.250Z,58.46
2023-02-25T13:49:31.709Z,58.36
2023-02-25T13:52:01.135Z,59.31
2023-02-25T13:54:29.280Z,59.87
2023-02-25T13:56:57.211Z,59.88
2023-02-25T13:59:25.180Z,59.53
2023-02-25T14:01:53.309Z,59.60
2023-02-25T14:04:21.129Z,59.83
2023-02-25T14:06:49.274Z,60.09
2023-02-25T14:09:17.287Z,59.49
2023-02-25T14:11:44.994Z,59.51
2023-02-25T14:14:13.111Z,58.70
2023-02-25T14:16:41.274Z,57.63
2023-02-25T14:19:09.365Z,56.66
2023-02-25T14:21:37.144Z,55.66
2023-02-25T14:24:05.080Z,55.24
2023-02-25T14:26:33.527Z,55.41
2023-02-25T14:29:01.344Z,55.36
2023-02-25T14:31:29.861Z,55.76
2023-02-25T14:33:57.949Z,55.44
2023-02-25T14:36:29.517Z,54.80
2023-02-25T14:38:59.842Z,54.36
2023-02-25T14:41:27.575Z,53.90
2023-02-25T14:43:55.494Z,53.19
2023-02-25T14:46:23.495Z,53.74
2023-02-25T14:48:51.475Z,53.54
2023-02-25T14:51:19.433Z,52.58
2023-02-25T14:53:47.364Z,53.36
2023-02-25T14:56:15.695Z,53.18
2023-02-25T14:58:43.430Z,53.00
2023-02-25T15:01:11.773Z,52.45
2023-02-25T15:03:42.245Z,52.24
2023-02-25T15:06:10.849Z,53.28
2023-02-25T15:08:38.737Z,53.54
2023-02-25T15:11:06.589Z,52.82
2023-02-25T15:13:34.788Z,52.67
2023-02-25T15:16:03.405Z,51.89
2023-02-25T15:18:32.222Z,50.52
2023-02-25T15:21:00.136Z,50.67
2023-02-25T15:23:28.405Z,50.15
2023-02-25T15:25:57.916Z,49.01
2023-02-25T15:28:25.967Z,48.63
2023-02-25T15:30:54.262Z,48.43
2023-02-25T15:33:22.534Z,48.26
2023-02-25T15:35:50.308Z,48.65
2023-02-25T15:38:18.318Z,48.55
2023-02-25T15:40:46.875Z,48.58
2023-02-25T15:43:14.703Z,48.53
2023-02-25T15:45:43.578Z,48.58
2023-02-25T15:48:11.462Z,49.32
2023-02-25T15:50:39.313Z,49.78
2023-02-25T15:53:07.257Z,51.59
2023-02-25T15:55:35.185Z,53.52
2023-02-25T15:58:03.367Z,55.01
2023-02-25T16:00:31.426Z,55.81
2023-02-25T16:03:01.692Z,56.91
2023-02-25T16:05:31.982Z,57.67
2023-02-25T16:08:00.294Z,58.16
2023-02-25T16:10:28.449Z,58.54
2023-02-25T16:12:56.349Z,58.92
2023-02-25T16:15:24.253Z,59.12
2023-02-25T16:17:52.079Z,59.14
2023-02-25T16:20:20.016Z,59.14
2023-02-25T16:22:48.244Z,59.53
2023-02-25T16:25:16.544Z,59.15
2023-02-25T16:27:44.583Z,58.82
2023-02-25T16:30:14.130Z,58.71
2023-02-25T16:32:42.082Z,58.44
2023-02-25T16:35:10.814Z,59.00
2023-02-25T16:37:38.809Z,59.54
2023-02-25T16:40:06.913Z,59.51
2023-02-25T16:42:36.069Z,59.71
2023-02-25T16:45:04.233Z,59.40
2023-02-25T16:47:32.271Z,60.04
2023-02-25T16:50:00.192Z,60.14
2023-02-25T16:52:28.498Z,60.08
2023-02-25T16:54:57.041Z,59.98
2023-02-25T16:57:25.640Z,59.88
2023-02-25T16:59:53.828Z,59.75
2023-02-25T17:02:21.723Z,59.54
2023-02-25T17:04:49.651Z,59.48
2023-02-25T17:07:18.299Z,59.61
2023-02-25T17:09:46.182Z,59.71
2023-02-25T17:12:14.138Z,59.83
2023-02-25T17:14:42.509Z,60.25
2023-02-25T17:17:10.426Z,60.59
2023-02-25T17:19:38.571Z,61.30
2023-02-25T17:22:07.121Z,61.07
2023-02-25T17:24:34.876Z,61.07
2023-02-25T17:27:02.772Z,61.79
2023-02-25T17:29:30.632Z,61.47
2023-02-25T17:31:58.502Z,61.78
2023-02-25T17:34:26.508Z,62.40
2023-02-25T17:36:55.119Z,62.35
2023-02-25T17:39:22.923Z,62.01
2023-02-25T17:41:51.098Z,62.35
2023-02-25T17:44:19.226Z,62.65
2023-02-25T17:46:47.056Z,62.53
2023-02-25T17:49:15.056Z,62.74
2023-02-25T17:51:42.920Z,62.93
2023-02-25T17:54:10.830Z,62.86
2023-02-25T17:56:39.393Z,62.38
2023-02-25T17:59:07.607Z,62.65
2023-02-25T18:01:40.299Z,63.12
2023-02-25T18:04:08.192Z,62.71
2023-02-25T18:06:35.995Z,62.93
2023-02-25T18:09:03.985Z,63.30
2023-02-25T18:11:32.806Z,62.90
2023-02-25T18:14:00.768Z,62.99
2023-02-25T18:16:28.965Z,62.99
2023-02-25T18:18:56.833Z,63.33
2023-02-25T18:21:26.386Z,63.60
2023-02-25T18:23:54.118Z,63.11
2023-02-25T18:26:22.576Z,63.96
2023-02-25T18:28:50.621Z,63.81
2023-02-25T18:31:20.090Z,63.63
2023-02-25T18:33:48.570Z,64.24
2023-02-25T18:36:16.388Z,64.48
2023-02-25T18:38:44.992Z,64.17
2023-02-25T18:41:13.366Z,64.30
2023-02-25T18:43:43.091Z,63.95
2023-02-25T18:46:11.695Z,64.64
2023-02-25T18:48:39.661Z,64.83
2023-02-25T18:51:07.882Z,64.56
2023-02-25T18:53:35.830Z,65.02
2023-02-25T18:56:03.730Z,64.90
2023-02-25T18:58:31.862Z,64.81
2023-02-25T19:00:59.815Z,65.19
2023-02-25T19:03:28.243Z,64.94
2023-02-25T19:05:56.220Z,65.21
2023-02-25T19:08:24.215Z,64.73
2023-02-25T19:10:52.444Z,65.29
2023-02-25T19:13:20.314Z,65.82
2023-02-25T19:15:49.029Z,65.44
2023-02-25T19:18:17.094Z,65.69
2023-02-25T19:20:44.936Z,65.77
2023-02-25T19:23:13.468Z,65.67
2023-02-25T19:25:41.336Z,66.22
2023-02-25T19:28:10.041Z,66.53
2023-02-25T19:30:38.094Z,66.06
2023-02-25T19:33:06.058Z,66.36
2023-02-25T19:35:33.977Z,66.62
2023-02-25T19:38:01.912Z,67.13
2023-02-25T19:40:30.552Z,67.41
2023-02-25T19:42:58.389Z,67.09
2023-02-25T19:45:26.408Z,67.10
2023-02-25T19:47:54.145Z,67.07
2023-02-25T19:50:22.360Z,67.30
2023-02-25T19:52:50.302Z,67.74
2023-02-25T19:55:18.174Z,67.64
2023-02-25T19:57:45.954Z,67.64
2023-02-25T20:00:14.300Z,67.70
2023-02-25T20:02:42.195Z,68.28
2023-02-25T20:05:10.890Z,68.04
2023-02-25T20:07:39.024Z,67.89
2023-02-25T20:10:06.859Z,68.23
2023-02-25T20:12:36.739Z,68.54
2023-02-25T20:15:04.764Z,67.96
2023-02-25T20:17:32.873Z,68.73
2023-02-25T20:20:00.761Z,68.20
2023-02-25T20:22:28.797Z,69.00
2023-02-25T20:24:56.937Z,68.63
2023-02-25T20:27:25.133Z,68.80
2023-02-25T20:29:53.863Z,68.72
2023-02-25T20:32:21.866Z,68.92
2023-02-25T20:34:49.749Z,68.58
2023-02-25T20:37:18.053Z,68.50
2023-02-25T20:39:48.147Z,68.33
2023-02-25T20:42:16.630Z,68.67
2023-02-25T20:44:44.648Z,68.39
2023-02-25T20:47:12.764Z,68.24
2023-02-25T20:49:41.078Z,67.66
2023-02-25T20:52:09.163Z,67.66
2023-02-25T20:54:37.543Z,67.36
2023-02-25T20:57:05.388Z,67.58
2023-02-25T20:59:35.337Z,67.67
2023-02-25T21:02:03.817Z,67.42
2023-02-25T21:04:32.017Z,68.28
2023-02-25T21:07:00.868Z,68.01
2023-02-25T21:09:28.782Z,68.09
2023-02-25T21:11:56.605Z,68.66
2023-02-25T21:14:24.456Z,69.11
2023-02-25T21:16:57.103Z,69.23
2023-02-25T21:19:25.583Z,69.27
2023-02-25T21:21:53.529Z,68.86
2023-02-25T21:24:21.392Z,69.28
2023-02-25T21:26:49.274Z,68.84
2023-02-25T21:29:17.312Z,68.92
2023-02-25T21:31:46.274Z,68.94
2023-02-25T21:34:15.055Z,69.71
2023-02-25T21:36:43.177Z,69.39
2023-02-25T21:39:12.782Z,69.07
2023-02-25T21:41:44.372Z,69.39
2023-02-25T21:44:13.096Z,69.54
2023-02-25T21:46:40.916Z,70.37
2023-02-25T21:49:10.813Z,70.43
2023-02-25T21:51:40.554Z,70.87
2023-02-25T21:54:08.488Z,70.82
2023-02-25T21:56:36.568Z,71.09
2023-02-25T21:59:05.695Z,71.43
2023-02-25T22:01:33.601Z,71.95
2023-02-25T22:04:01.688Z,71.71
2023-02-25T22:06:29.526Z,71.84
2023-02-25T22:08:57.685Z,72.08
2023-02-25T22:11:25.476Z,72.17
2023-02-25T22:13:53.470Z,72.08
2023-02-25T22:16:21.601Z,72.04
2023-02-25T22:18:49.397Z,72.48
2023-02-25T22:21:18.031Z,72.02
2023-02-25T22:23:45.813Z,72.89
2023-02-25T22:26:13.678Z,73.05
2023-02-25T22:28:41.580Z,72.91
2023-02-25T22:31:09.547Z,72.68
2023-02-25T22:33:37.678Z,72.79
2023-02-25T22:36:05.615Z,73.69
2023-02-25T22:38:33.480Z,73.50
2023-02-25T22:41:02.209Z,73.65
2023-02-25T22:43:30.495Z,73.87
2023-02-25T22:45:58.903Z,73.51
2023-02-25T22:48:26.681Z,73.53
2023-02-25T22:50:54.558Z,73.68
2023-02-25T22:53:22.527Z,73.71
2023-02-25T22:55:50.218Z,73.82
2023-02-25T22:58:18.669Z,73.93
2023-02-25T23:00:46.482Z,73.88
2023-02-25T23:03:15.841Z,74.61
2023-02-25T23:05:43.640Z,74.46
2023-02-25T23:08:11.538Z,74.46
2023-02-25T23:10:40.492Z,74.79
2023-02-25T23:13:09.237Z,74.70
2023-02-25T23:15:37.197Z,75.07
2023-02-25T23:18:06.064Z,74.72
2023-02-25T23:20:33.844Z,74.76
2023-02-25T23:23:05.499Z,75.45
2023-02-25T23:25:33.403Z,74.96
2023-02-25T23:28:01.757Z,74.68
2023-02-25T23:30:29.926Z,74.68
2023-02-25T23:32:57.676Z,74.80
2023-02-25T23:35:25.920Z,75.14
2023-02-25T23:37:53.872Z,75.56
2023-02-25T23:40:21.903Z,75.44
2023-02-25T23:42:50.171Z,75.51
2023-02-25T23:45:17.915Z,75.60
2023-02-25T23:47:46.048Z,75.51
2023-02-25T23:50:15.328Z,75.59
2023-02-25T23:52:42.969Z,75.52
2023-02-25T23:55:11.789Z,75.53
2023-02-25T23:57:39.536Z,75.59
